Time;durP1;ratioP1;P1;durP2;ratioP2;P2;SDS_P1;SDS_P2;PMS_P1;PMS_P2;Temp;Humidity;BMP_temperature;BMP_pressure;BME280_temperature;BME280_humidity;BME280_pressure;Samples;Min_cycle;Max_cycle;Signal;HPM_P1;HPM_P2
2022/08/05 00:02:22;;;;;;;6.38;3.63;;;26.10;73.60;;;;;;4986495;28;20034;-74
2022/08/05 00:04:48;;;;;;;5.60;2.70;;;26.10;73.80;;;;;;4987355;28;20026;-74
2022/08/05 00:07:14;;;;;;;6.38;3.10;;;26.10;73.60;;;;;;4988904;28;20027;-79
2022/08/05 00:09:40;;;;;;;3.90;3.10;;;26.10;73.50;;;;;;4989767;28;20472;-82
2022/08/05 00:12:06;;;;;;;4.30;2.72;;;26.00;73.40;;;;;;4992106;28;20031;-81
2022/08/05 00:14:31;;;;;;;5.32;3.08;;;26.00;73.20;;;;;;4987450;28;20113;-81
2022/08/05 00:16:57;;;;;;;4.07;3.00;;;26.00;73.10;;;;;;4991553;28;20023;-82
2022/08/05 00:19:24;;;;;;;4.32;3.03;;;26.00;73.00;;;;;;4992452;28;20023;-82
2022/08/05 00:21:49;;;;;;;3.70;2.80;;;26.00;73.10;;;;;;4994633;28;20019;-81
2022/08/05 00:24:15;;;;;;;4.47;3.00;;;25.90;73.20;;;;;;4994084;28;20101;-80
2022/08/05 00:26:41;;;;;;;7.80;3.20;;;25.90;73.10;;;;;;4993113;28;20043;-81
2022/08/05 00:29:06;;;;;;;4.57;3.35;;;25.90;73.10;;;;;;4991686;28;20026;-78
2022/08/05 00:31:32;;;;;;;3.65;2.90;;;25.90;73.10;;;;;;4977924;28;20027;-78
2022/08/05 00:33:57;;;;;;;7.20;2.92;;;25.90;73.40;;;;;;4987120;28;20022;-80
2022/08/05 00:36:23;;;;;;;6.57;2.53;;;25.90;73.50;;;;;;5022658;22;20271;-76
2022/08/05 00:38:50;;;;;;;5.72;3.20;;;25.80;73.70;;;;;;4983612;28;20031;-76
2022/08/05 00:41:27;;;;;;;4.53;3.30;;;25.70;74.00;;;;;;4987677;28;20076;-76
2022/08/05 00:43:53;;;;;;;3.95;3.33;;;25.70;75.00;;;;;;4989414;28;20390;-76
2022/08/05 00:46:18;;;;;;;6.95;3.10;;;25.60;75.30;;;;;;4991229;28;20026;-77
2022/08/05 00:48:44;;;;;;;5.53;3.40;;;25.60;75.30;;;;;;4987898;28;20088;-76
2022/08/05 00:51:09;;;;;;;5.53;3.42;;;25.60;75.70;;;;;;4984197;28;20110;-75
2022/08/05 00:53:35;;;;;;;4.85;3.20;;;25.50;76.20;;;;;;4985613;28;20045;-75
2022/08/05 00:56:01;;;;;;;5.68;2.75;;;25.50;76.40;;;;;;4988508;28;20098;-75
2022/08/05 00:58:26;;;;;;;5.57;3.13;;;25.40;76.50;;;;;;4992623;28;20026;-75
2022/08/05 01:00:52;;;;;;;4.95;2.90;;;25.40;76.20;;;;;;4986994;28;20037;-74
2022/08/05 01:03:18;;;;;;;4.72;3.20;;;25.30;75.90;;;;;;4984667;28;20036;-75
2022/08/05 01:05:43;;;;;;;5.30;3.47;;;25.30;76.80;;;;;;4985630;28;20492;-74
2022/08/05 01:08:09;;;;;;;5.30;3.55;;;25.20;77.40;;;;;;4986459;28;20045;-75
2022/08/05 01:10:42;;;;;;;5.53;4.10;;;25.20;78.10;;;;;;4989013;28;20034;-74
2022/08/05 01:13:15;;;;;;;5.68;3.47;;;25.20;78.50;;;;;;4989931;28;20558;-74
2022/08/05 01:15:45;;;;;;;;;;;25.10;78.60;;;;;;4987616;28;20034;-75
2022/08/05 01:18:23;;;;;;;3.60;2.60;;;25.10;78.80;;;;;;4991003;28;20334;-74
2022/08/05 01:21:15;;;;;;;8.18;3.45;;;25.00;78.40;;;;;;4989171;28;20419;-75
2022/08/05 01:23:52;;;;;;;5.20;2.90;;;25.00;78.00;;;;;;4986396;28;20093;-74
2022/08/05 01:26:36;;;;;;;4.55;3.22;;;25.00;77.90;;;;;;4987868;28;20040;-75
2022/08/05 01:29:09;;;;;;;3.50;2.83;;;24.90;77.70;;;;;;4976241;28;20367;-76
2022/08/05 01:31:46;;;;;;;4.00;3.17;;;24.90;77.70;;;;;;4996623;28;20045;-74
2022/08/05 01:34:35;;;;;;;4.65;3.03;;;24.80;77.40;;;;;;4989249;28;20359;-75
2022/08/05 01:37:21;;;;;;;5.18;3.28;;;24.80;77.50;;;;;;4988524;28;20030;-78
2022/08/05 01:39:50;;;;;;;4.13;2.47;;;24.70;77.40;;;;;;4989041;28;20037;-76
2022/08/05 01:42:18;;;;;;;6.40;3.10;;;24.70;77.60;;;;;;5004423;28;20491;-75
2022/08/05 01:44:46;;;;;;;4.38;3.15;;;24.60;77.80;;;;;;4984532;28;20034;-76
2022/08/05 01:47:15;;;;;;;4.72;3.20;;;24.60;77.80;;;;;;4985824;28;20394;-75
2022/08/05 01:49:41;;;;;;;5.30;3.25;;;24.50;77.70;;;;;;4987317;28;20018;-76
2022/08/05 01:52:08;;;;;;;3.20;2.90;;;24.50;77.60;;;;;;4985607;28;20049;-75
2022/08/05 01:54:45;;;;;;;2.72;2.42;;;24.50;77.70;;;;;;4989706;28;20030;-76
2022/08/05 01:57:12;;;;;;;3.25;2.75;;;24.50;77.80;;;;;;4999227;28;20390;-75
2022/08/05 01:59:40;;;;;;;5.30;3.20;;;24.50;77.80;;;;;;4983060;28;20038;-75
2022/08/05 02:02:10;;;;;;;3.80;3.20;;;24.50;77.60;;;;;;4983565;28;20073;-75
2022/08/05 02:04:39;;;;;;;5.60;3.03;;;24.50;77.80;;;;;;4987793;28;20069;-76
2022/08/05 02:07:05;;;;;;;3.80;2.95;;;24.50;77.80;;;;;;4986343;28;20088;-74
2022/08/05 02:09:31;;;;;;;4.38;3.00;;;24.50;77.90;;;;;;4984400;28;20136;-76
2022/08/05 02:12:08;;;;;;;6.38;3.00;;;24.50;77.90;;;;;;4987035;28;20058;-75
2022/08/05 02:14:47;;;;;;;5.40;3.25;;;24.50;77.90;;;;;;4991841;28;20030;-75
2022/08/05 02:17:28;;;;;;;3.28;2.72;;;24.50;77.90;;;;;;4982533;28;20019;-75
2022/08/05 02:19:59;;;;;;;4.13;2.88;;;24.40;77.70;;;;;;4988718;28;20441;-75
2022/08/05 02:22:29;;;;;;;5.47;3.40;;;24.50;77.70;;;;;;4986025;28;20042;-75
2022/08/05 02:25:04;;;;;;;4.53;2.90;;;24.40;77.70;;;;;;4990248;28;20169;-75
2022/08/05 02:27:33;;;;;;;7.28;3.38;;;24.40;77.90;;;;;;4986496;28;20038;-75
2022/08/05 02:30:00;;;;;;;3.70;3.13;;;24.40;78.20;;;;;;4987324;28;20018;-75
2022/08/05 02:32:29;;;;;;;4.55;2.80;;;24.40;78.50;;;;;;4988845;28;20084;-75
2022/08/05 02:35:00;;;;;;;5.00;3.08;;;24.30;78.60;;;;;;4987202;28;20108;-76
2022/08/05 02:37:29;;;;;;;4.50;3.10;;;24.30;78.70;;;;;;4982889;28;20062;-76
2022/08/05 02:39:55;;;;;;;5.15;3.25;;;24.30;79.00;;;;;;4987700;28;20080;-75
2022/08/05 02:42:22;;;;;;;7.00;3.28;;;24.30;78.90;;;;;;4989958;28;20482;-76
2022/08/05 02:44:48;;;;;;;5.47;3.50;;;24.30;78.90;;;;;;4984972;28;20023;-75
2022/08/05 02:47:15;;;;;;;3.47;2.85;;;24.30;78.80;;;;;;4986543;28;20096;-75
2022/08/05 02:49:43;;;;;;;6.78;3.28;;;24.30;79.00;;;;;;4983222;28;20498;-77
2022/08/05 02:52:12;;;;;;;7.00;2.78;;;24.30;79.10;;;;;;4987396;28;20029;-74
2022/08/05 02:54:40;;;;;;;5.10;2.70;;;24.30;79.10;;;;;;4986516;28;20443;-76
2022/08/05 02:57:09;;;;;;;7.00;2.90;;;24.30;79.30;;;;;;4991159;28;20034;-76
2022/08/05 02:59:36;;;;;;;5.05;2.95;;;24.30;79.40;;;;;;4986218;28;20030;-75
2022/08/05 03:02:03;;;;;;;4.00;2.70;;;24.30;79.40;;;;;;4986649;28;20030;-77
2022/08/05 03:04:28;;;;;;;5.68;3.33;;;24.20;79.70;;;;;;4987347;28;20057;-76
2022/08/05 03:06:56;;;;;;;5.15;3.03;;;24.20;79.60;;;;;;4985567;28;20106;-75
2022/08/05 03:09:22;;;;;;;3.25;2.70;;;24.20;79.70;;;;;;4985832;28;20069;-76
2022/08/05 03:11:49;;;;;;;3.83;2.83;;;24.20;79.90;;;;;;4990576;28;20444;-77
2022/08/05 03:14:15;;;;;;;5.55;3.28;;;24.20;80.10;;;;;;4988056;28;20132;-75
2022/08/05 03:16:41;;;;;;;6.47;3.45;;;24.20;80.10;;;;;;4988430;28;20503;-75
2022/08/05 03:19:06;;;;;;;6.72;3.30;;;24.20;80.10;;;;;;4987901;28;20061;-76
2022/08/05 03:21:33;;;;;;;3.63;2.75;;;24.10;80.20;;;;;;4991613;28;20077;-75
2022/08/05 03:24:00;;;;;;;4.70;2.97;;;24.10;80.40;;;;;;4990143;28;20067;-75
2022/08/05 03:26:26;;;;;;;8.48;3.28;;;24.10;81.00;;;;;;4989723;28;20026;-75
2022/08/05 03:28:51;;;;;;;5.13;2.90;;;24.10;81.20;;;;;;4991443;28;20038;-75
2022/08/05 03:31:17;;;;;;;6.43;3.17;;;24.00;81.00;;;;;;4988775;28;20525;-74
2022/08/05 03:33:44;;;;;;;4.65;2.72;;;24.10;81.10;;;;;;4986824;28;20078;-75
2022/08/05 03:36:10;;;;;;;5.47;3.15;;;24.00;81.90;;;;;;4990508;28;20058;-75
2022/08/05 03:38:40;;;;;;;4.07;3.00;;;24.00;81.30;;;;;;4986955;28;20065;-76
2022/08/05 03:41:06;;;;;;;5.55;3.40;;;24.00;81.40;;;;;;4988552;28;20034;-79
2022/08/05 03:43:32;;;;;;;4.35;2.80;;;24.00;81.50;;;;;;4988697;28;20088;-76
2022/08/05 03:45:57;;;;;;;4.93;3.13;;;23.90;81.50;;;;;;4988605;28;20069;-77
2022/08/05 03:48:23;;;;;;;13.05;3.33;;;23.90;81.60;;;;;;4990265;28;20031;-76
2022/08/05 03:51:12;;;;;;;5.93;2.97;;;23.90;81.90;;;;;;4990034;28;20472;-75
2022/08/05 03:53:46;;;;;;;5.85;2.90;;;23.90;81.90;;;;;;4989467;28;20546;-75
2022/08/05 03:56:20;;;;;;;4.03;3.15;;;23.80;82.10;;;;;;4987173;28;20026;-75
2022/08/05 03:58:48;;;;;;;4.97;3.30;;;23.90;82.20;;;;;;4989297;28;20109;-76
2022/08/05 04:01:18;;;;;;;5.57;3.45;;;23.90;82.20;;;;;;4988484;28;20495;-76
2022/08/05 04:03:47;;;;;;;6.80;3.30;;;23.80;82.20;;;;;;4988578;28;20030;-76
2022/08/05 04:06:14;;;;;;;6.57;3.30;;;23.80;82.30;;;;;;4987306;28;20056;-76
2022/08/05 04:08:41;;;;;;;5.97;3.30;;;23.70;82.50;;;;;;4982697;28;20034;-76
2022/08/05 04:11:07;;;;;;;7.03;3.22;;;23.70;82.60;;;;;;4988259;28;20034;-75
2022/08/05 04:13:33;;;;;;;7.13;2.90;;;23.70;82.70;;;;;;4989407;28;20479;-76
2022/08/05 04:15:58;;;;;;;5.88;3.05;;;23.70;82.90;;;;;;4986641;28;20022;-76
2022/08/05 04:18:24;;;;;;;6.70;3.40;;;23.70;83.10;;;;;;5000550;28;20042;-74
2022/08/05 04:20:57;;;;;;;5.43;3.17;;;23.60;83.10;;;;;;4987819;28;20379;-75
2022/08/05 04:23:24;;;;;;;5.47;3.05;;;23.60;83.40;;;;;;4984392;28;20046;-75
2022/08/05 04:25:50;;;;;;;4.45;3.05;;;23.60;83.40;;;;;;4987963;28;20038;-74
2022/08/05 04:28:17;;;;;;;5.82;3.13;;;23.60;83.60;;;;;;4985366;28;20378;-74
2022/08/05 04:30:44;;;;;;;9.57;3.10;;;23.60;83.40;;;;;;4989750;28;20084;-75
2022/08/05 04:33:10;;;;;;;8.32;3.17;;;23.60;83.30;;;;;;5002024;28;20058;-73
2022/08/05 04:35:35;;;;;;;5.53;3.20;;;23.60;83.30;;;;;;4986339;28;20465;-74
2022/08/05 04:38:01;;;;;;;7.57;2.85;;;23.50;83.40;;;;;;4987526;28;20028;-73
2022/08/05 04:40:26;;;;;;;7.47;3.28;;;23.50;83.60;;;;;;4985774;28;20026;-73
2022/08/05 04:42:52;;;;;;;6.65;2.90;;;23.50;83.70;;;;;;4982025;28;20125;-74
2022/08/05 04:45:18;;;;;;;6.55;3.28;;;23.50;83.80;;;;;;4983904;28;20030;-75
2022/08/05 04:47:43;;;;;;;8.70;3.17;;;23.50;83.90;;;;;;4990403;28;20038;-76
2022/08/05 04:50:09;;;;;;;8.18;2.67;;;23.50;84.20;;;;;;4988653;28;20235;-74
2022/08/05 04:52:35;;;;;;;3.80;2.55;;;23.50;84.30;;;;;;4986274;28;20092;-73
2022/08/05 04:55:00;;;;;;;6.72;2.92;;;23.40;84.20;;;;;;4985357;28;20031;-74
2022/08/05 04:57:26;;;;;;;5.18;2.50;;;23.50;84.40;;;;;;4993412;28;20522;-73
2022/08/05 04:59:52;;;;;;;6.07;2.97;;;23.50;84.40;;;;;;4990469;28;20030;-75
2022/08/05 05:02:17;;;;;;;7.40;2.63;;;23.50;84.90;;;;;;4994478;28;20042;-73
2022/08/05 05:04:43;;;;;;;3.33;2.55;;;23.50;85.00;;;;;;4990205;28;20041;-73
2022/08/05 05:07:08;;;;;;;9.27;3.35;;;23.50;85.00;;;;;;4987369;28;20029;-73
2022/08/05 05:09:34;;;;;;;5.30;3.20;;;23.50;84.90;;;;;;4988845;28;20061;-73
2022/08/05 05:12:00;;;;;;;7.22;2.97;;;23.50;84.80;;;;;;4986771;28;20182;-73
2022/08/05 05:14:26;;;;;;;7.05;3.30;;;23.50;84.70;;;;;;4989124;28;20025;-72
2022/08/05 05:16:51;;;;;;;7.10;3.75;;;23.50;85.20;;;;;;4989148;28;20026;-74
2022/08/05 05:19:17;;;;;;;8.25;3.72;;;23.50;85.70;;;;;;4992007;28;20475;-74
2022/08/05 05:21:43;;;;;;;5.57;3.70;;;23.50;85.90;;;;;;4990196;28;20114;-75
2022/08/05 05:24:09;;;;;;;8.60;3.83;;;23.50;85.80;;;;;;4986768;28;20033;-73
2022/08/05 05:26:34;;;;;;;11.65;3.88;;;23.50;85.40;;;;;;4987281;28;20394;-74
2022/08/05 05:29:00;;;;;;;5.93;3.58;;;23.50;84.80;;;;;;4993821;28;20042;-73
2022/08/05 05:31:26;;;;;;;8.70;3.45;;;23.60;84.70;;;;;;4984696;28;20388;-73
2022/08/05 05:33:51;;;;;;;10.05;3.10;;;23.60;83.40;;;;;;4990735;28;20118;-73
2022/08/05 05:36:17;;;;;;;8.60;3.33;;;23.60;83.00;;;;;;4986616;28;20455;-75
2022/08/05 05:38:43;;;;;;;6.72;3.17;;;23.70;82.40;;;;;;4981407;28;20040;-74
2022/08/05 05:41:08;;;;;;;9.55;3.25;;;23.80;81.90;;;;;;4986502;28;20364;-73
2022/08/05 05:43:34;;;;;;;5.68;3.53;;;23.90;81.60;;;;;;4989657;28;20057;-74
2022/08/05 05:46:00;;;;;;;6.20;3.08;;;24.10;81.20;;;;;;4983209;28;20464;-75
2022/08/05 05:48:25;;;;;;;5.80;3.42;;;24.20;80.70;;;;;;4987652;28;20026;-74
2022/08/05 05:50:51;;;;;;;10.20;2.92;;;24.40;80.00;;;;;;4986064;28;20097;-74
2022/08/05 05:53:17;;;;;;;4.78;3.03;;;24.60;79.10;;;;;;5000568;28;20027;-71
2022/08/05 05:55:42;;;;;;;6.55;3.40;;;24.70;78.50;;;;;;4987430;28;20022;-73
2022/08/05 05:58:08;;;;;;;5.60;3.00;;;24.90;78.30;;;;;;4987349;28;20026;-74
2022/08/05 06:00:34;;;;;;;8.10;3.00;;;25.00;77.50;;;;;;4986969;28;20102;-73
2022/08/05 06:03:02;;;;;;;5.80;2.70;;;25.10;77.20;;;;;;4987930;28;20038;-75
2022/08/05 06:05:28;;;;;;;5.95;3.00;;;25.30;76.70;;;;;;4979765;28;20030;-73
2022/08/05 06:07:54;;;;;;;6.05;3.40;;;25.30;76.70;;;;;;4986152;28;20100;-74
2022/08/05 06:10:19;;;;;;;6.47;3.20;;;25.40;76.70;;;;;;4981882;28;20145;-74
2022/08/05 06:12:45;;;;;;;6.95;2.97;;;25.50;76.50;;;;;;4981312;28;20027;-80
2022/08/05 06:15:11;;;;;;;8.57;3.42;;;25.70;76.10;;;;;;4992049;28;20391;-74
2022/08/05 06:17:37;;;;;;;10.68;3.72;;;25.70;75.90;;;;;;4978665;28;20026;-75
2022/08/05 06:20:04;;;;;;;6.63;3.90;;;25.90;75.80;;;;;;4980623;28;20081;-74
2022/08/05 06:22:31;;;;;;;8.30;3.15;;;26.00;75.70;;;;;;4988573;28;20074;-74
2022/08/05 06:24:57;;;;;;;8.70;3.67;;;26.00;75.30;;;;;;4988124;28;20022;-73
2022/08/05 06:27:23;;;;;;;10.57;4.00;;;26.00;75.50;;;;;;4989378;28;20031;-74
2022/08/05 06:29:49;;;;;;;9.13;4.30;;;26.00;75.40;;;;;;4989293;28;20037;-74
2022/08/05 06:32:14;;;;;;;12.57;4.60;;;26.00;75.20;;;;;;4987035;28;20034;-74
2022/08/05 06:34:40;;;;;;;5.20;3.83;;;26.10;75.30;;;;;;4985340;28;20654;-74
2022/08/05 06:37:07;;;;;;;7.20;3.78;;;26.00;75.20;;;;;;5003987;22;20508;-80
2022/08/05 06:39:32;;;;;;;6.30;3.35;;;26.10;75.40;;;;;;4991241;28;20372;-79
2022/08/05 06:42:01;;;;;;;18.52;4.65;;;26.10;75.70;;;;;;4996560;28;20050;-77
2022/08/05 06:44:27;;;;;;;5.18;3.58;;;26.10;75.80;;;;;;4995143;28;20029;-80
2022/08/05 06:46:53;;;;;;;7.10;3.60;;;26.10;76.20;;;;;;4998099;28;20050;-80
2022/08/05 06:49:19;;;;;;;7.80;3.92;;;26.00;76.60;;;;;;5009665;28;20018;-78
2022/08/05 06:51:44;;;;;;;7.45;3.30;;;26.10;77.10;;;;;;4997536;28;20049;-76
2022/08/05 06:54:10;;;;;;;10.73;3.83;;;26.10;77.70;;;;;;5020333;28;20066;-78
2022/08/05 06:56:36;;;;;;;8.73;4.07;;;26.10;77.80;;;;;;5002855;28;20034;-79
2022/08/05 06:59:03;;;;;;;10.10;3.60;;;26.20;78.10;;;;;;4999334;28;20391;-75
2022/08/05 07:01:30;;;;;;;7.80;3.38;;;26.20;78.30;;;;;;4995229;28;20026;-78
2022/08/05 07:03:55;;;;;;;8.50;3.83;;;26.30;78.40;;;;;;5002809;28;20081;-78
2022/08/05 07:06:22;;;;;;;7.68;3.92;;;26.30;78.40;;;;;;5002172;28;20034;-79
2022/08/05 07:08:48;;;;;;;11.45;3.85;;;26.30;78.20;;;;;;4996462;28;20038;-75
2022/08/05 07:11:14;;;;;;;6.60;3.65;;;26.30;78.20;;;;;;4993820;28;20026;-77
2022/08/05 07:19:08;;;;;;;12.07;4.10;;;26.40;78.10;;;;;;4993967;28;20076;-77
2022/08/05 07:21:33;;;;;;;4.72;3.05;;;26.40;78.10;;;;;;4991806;28;20034;-79
2022/08/05 07:23:59;;;;;;;8.95;3.58;;;26.40;77.80;;;;;;4996517;28;20030;-80
2022/08/05 07:26:25;;;;;;;6.57;3.28;;;26.40;77.40;;;;;;4995926;28;20037;-79
2022/08/05 07:28:50;;;;;;;6.07;3.17;;;26.40;77.20;;;;;;5002790;28;20058;-79
2022/08/05 07:31:17;;;;;;;14.43;3.35;;;26.40;77.30;;;;;;4999936;28;20141;-79
2022/08/05 07:33:42;;;;;;;6.18;3.05;;;26.50;76.90;;;;;;4997070;28;20034;-76
2022/08/05 07:36:09;;;;;;;6.78;3.00;;;26.50;76.00;;;;;;5001476;28;20030;-79
2022/08/05 07:38:36;;;;;;;5.18;2.90;;;26.60;76.10;;;;;;4998416;28;20030;-79
2022/08/05 07:41:06;;;;;;;5.72;2.72;;;26.60;76.00;;;;;;5018565;28;20029;-80
2022/08/05 07:43:32;;;;;;;5.55;3.10;;;26.70;76.30;;;;;;5001198;28;20022;-80
2022/08/05 07:45:58;;;;;;;4.05;2.67;;;26.70;76.30;;;;;;4992923;28;20753;-81
2022/08/05 07:48:24;;;;;;;7.05;2.55;;;26.80;76.10;;;;;;4998670;28;20038;-77
2022/08/05 07:50:49;;;;;;;4.32;2.80;;;26.90;74.70;;;;;;4998041;28;20065;-76
2022/08/05 07:53:15;;;;;;;3.97;2.45;;;26.90;73.60;;;;;;5016391;28;20030;-79
2022/08/05 07:55:41;;;;;;;5.18;1.88;;;26.90;72.60;;;;;;4998826;28;20078;-77
2022/08/05 07:58:06;;;;;;;5.43;2.28;;;27.00;72.10;;;;;;4994980;28;20081;-76
2022/08/05 08:00:32;;;;;;;3.88;2.70;;;27.00;72.30;;;;;;4985338;28;20062;-75
2022/08/05 08:02:58;;;;;;;3.67;2.10;;;27.10;71.80;;;;;;4986636;28;20031;-75
2022/08/05 08:05:25;;;;;;;2.92;1.92;;;27.20;71.60;;;;;;4989840;28;20034;-76
2022/08/05 08:07:51;;;;;;;4.68;2.40;;;27.20;71.20;;;;;;4987017;28;20033;-75
2022/08/05 08:10:16;;;;;;;4.35;2.30;;;27.30;71.10;;;;;;4990815;28;20030;-73
2022/08/05 08:12:42;;;;;;;5.97;2.10;;;27.30;70.90;;;;;;4989417;28;20049;-76
2022/08/05 08:15:09;;;;;;;4.22;2.17;;;27.40;71.10;;;;;;4989346;28;20105;-77
2022/08/05 08:17:35;;;;;;;3.45;2.17;;;27.40;70.60;;;;;;4990819;28;20109;-77
2022/08/05 08:20:03;;;;;;;5.43;2.13;;;27.50;70.30;;;;;;4991346;28;20101;-77
2022/08/05 08:22:29;;;;;;;3.33;1.85;;;27.50;70.10;;;;;;4988338;28;20026;-75
2022/08/05 08:24:55;;;;;;;13.30;3.30;;;27.60;69.80;;;;;;4987170;28;20446;-76
2022/08/05 08:27:21;;;;;;;2.33;1.90;;;27.60;69.30;;;;;;4990345;28;20049;-74
2022/08/05 08:29:47;;;;;;;6.88;2.45;;;27.70;69.60;;;;;;4985096;28;20486;-74
2022/08/05 08:32:12;;;;;;;5.28;2.38;;;27.60;69.10;;;;;;4990970;28;20022;-75
2022/08/05 08:34:38;;;;;;;3.08;2.30;;;27.70;69.30;;;;;;4992505;28;20048;-76
2022/08/05 08:37:04;;;;;;;5.88;2.42;;;27.70;69.20;;;;;;4989378;28;20110;-77
2022/08/05 08:39:29;;;;;;;3.72;2.33;;;27.80;69.40;;;;;;4985193;28;20113;-76
2022/08/05 08:41:56;;;;;;;4.20;2.22;;;27.90;69.40;;;;;;4986635;28;20062;-75
2022/08/05 08:44:23;;;;;;;2.65;2.30;;;27.90;68.90;;;;;;4994444;28;20044;-75
2022/08/05 08:46:50;;;;;;;3.13;2.00;;;28.00;68.60;;;;;;4995462;28;20085;-75
2022/08/05 08:49:19;;;;;;;3.78;2.17;;;28.00;68.30;;;;;;4987328;28;20022;-75
2022/08/05 08:51:57;;;;;;;3.30;2.30;;;28.00;68.50;;;;;;4987107;28;20038;-75
2022/08/05 08:54:23;;;;;;;2.58;2.10;;;28.10;68.30;;;;;;4987508;28;20027;-76
2022/08/05 08:56:49;;;;;;;5.38;2.20;;;28.00;68.40;;;;;;4993581;28;20087;-77
2022/08/05 08:59:18;;;;;;;3.78;2.22;;;28.00;68.90;;;;;;4993039;28;20054;-74
2022/08/05 09:01:44;;;;;;;4.82;2.60;;;27.90;68.70;;;;;;4980647;28;20573;-75
2022/08/05 09:04:11;;;;;;;4.20;2.50;;;28.00;68.90;;;;;;4990398;28;20037;-75
2022/08/05 09:06:37;;;;;;;2.92;1.92;;;28.00;68.50;;;;;;4986663;28;20041;-75
2022/08/05 09:09:03;;;;;;;3.53;2.40;;;28.00;68.00;;;;;;4984152;28;20030;-75
2022/08/05 09:11:31;;;;;;;3.72;2.25;;;28.00;68.30;;;;;;4991981;28;20026;-76
2022/08/05 09:13:57;;;;;;;5.82;2.22;;;28.00;68.50;;;;;;4986022;28;20058;-76
2022/08/05 09:16:22;;;;;;;2.95;1.92;;;28.00;68.60;;;;;;4990129;28;20061;-75
2022/08/05 09:18:49;;;;;;;5.05;1.92;;;28.00;68.40;;;;;;4989180;28;20030;-77
2022/08/05 09:21:14;;;;;;;4.10;2.00;;;28.10;68.40;;;;;;4990989;28;20113;-76
2022/08/05 09:23:40;;;;;;;2.30;1.73;;;28.10;68.40;;;;;;4988562;28;20090;-78
2022/08/05 09:26:11;;;;;;;2.08;1.75;;;28.10;67.70;;;;;;4993067;28;20030;-78
2022/08/05 09:28:39;;;;;;;2.63;1.80;;;28.00;66.80;;;;;;4986086;28;20034;-77
2022/08/05 09:31:05;;;;;;;2.17;1.65;;;28.00;66.90;;;;;;4989956;28;20121;-77
2022/08/05 09:33:31;;;;;;;3.45;1.88;;;28.10;67.10;;;;;;4988260;28;20440;-76
2022/08/05 09:36:02;;;;;;;2.53;2.00;;;28.10;66.90;;;;;;4994090;28;20073;-78
2022/08/05 09:38:28;;;;;;;4.18;1.67;;;28.20;66.80;;;;;;4995075;28;20111;-77
2022/08/05 09:41:05;;;;;;;2.58;1.50;;;28.20;66.90;;;;;;4987738;28;20046;-76
2022/08/05 09:43:32;;;;;;;2.13;1.92;;;28.10;65.70;;;;;;4985091;28;20027;-77
2022/08/05 09:45:58;;;;;;;3.58;2.03;;;28.10;65.60;;;;;;4984268;28;20038;-77
2022/08/05 09:48:29;;;;;;;3.65;1.80;;;28.20;65.50;;;;;;4984517;28;20372;-77
2022/08/05 09:50:59;;;;;;;3.85;1.42;;;28.30;64.50;;;;;;4990664;28;20030;-75
2022/08/05 09:53:26;;;;;;;2.15;1.65;;;28.40;63.60;;;;;;4986670;28;20475;-76
2022/08/05 09:55:55;;;;;;;3.42;1.70;;;28.40;63.60;;;;;;4989286;28;20030;-75
2022/08/05 09:58:21;;;;;;;1.70;1.60;;;28.50;63.20;;;;;;4985004;28;20038;-75
2022/08/05 10:01:02;;;;;;;3.72;1.63;;;28.50;62.80;;;;;;4989335;28;20042;-76
2022/08/05 10:03:28;;;;;;;1.75;1.52;;;28.60;63.70;;;;;;4988758;28;20022;-77
2022/08/05 10:06:20;;;;;;;2.80;1.77;;;28.60;64.00;;;;;;4984524;28;20030;-76
2022/08/05 10:08:46;;;;;;;4.28;2.08;;;28.60;64.50;;;;;;4982021;28;20057;-75
2022/08/05 10:11:15;;;;;;;4.53;3.40;;;28.60;64.70;;;;;;4989275;28;20030;-75
2022/08/05 10:13:42;;;;;;;3.78;2.80;;;28.60;64.60;;;;;;4988822;28;20023;-75
2022/08/05 10:16:35;;;;;;;3.92;2.20;;;28.60;64.60;;;;;;4982513;28;20483;-75
2022/08/05 10:19:01;;;;;;;2.97;1.90;;;28.70;64.90;;;;;;4981984;28;20104;-73
2022/08/05 10:21:27;;;;;;;3.10;1.90;;;28.60;64.70;;;;;;4988165;28;20495;-73
2022/08/05 10:23:54;;;;;;;3.88;2.10;;;28.60;64.70;;;;;;4989657;28;20406;-73
2022/08/05 10:26:20;;;;;;;2.53;2.03;;;28.70;64.60;;;;;;4991325;28;20530;-73
2022/08/05 10:28:46;;;;;;;2.50;2.08;;;28.80;65.10;;;;;;4991328;28;20080;-73
2022/08/05 10:31:14;;;;;;;6.88;2.08;;;28.80;65.80;;;;;;4984943;28;20364;-73
2022/08/05 10:33:39;;;;;;;7.68;2.55;;;28.80;65.20;;;;;;4991818;28;20049;-73
2022/08/05 10:36:05;;;;;;;4.15;2.33;;;28.90;65.10;;;;;;4994772;28;20065;-73
2022/08/05 10:38:34;;;;;;;5.50;2.20;;;29.00;64.70;;;;;;4988678;28;20022;-74
2022/08/05 10:41:04;;;;;;;4.40;2.25;;;28.90;64.10;;;;;;4989579;28;20030;-73
2022/08/05 10:43:44;;;;;;;2.10;1.90;;;29.00;64.20;;;;;;4990108;28;20030;-74
2022/08/05 10:46:14;;;;;;;4.78;2.33;;;29.00;64.30;;;;;;4989624;28;20040;-74
2022/08/05 10:48:42;;;;;;;6.95;4.10;;;29.00;64.30;;;;;;4989033;28;20399;-72
2022/08/05 10:51:08;;;;;;;7.22;2.90;;;29.00;64.30;;;;;;4987452;28;20026;-73
2022/08/05 10:53:38;;;;;;;4.00;2.22;;;29.00;64.40;;;;;;4984730;28;20026;-75
2022/08/05 10:56:13;;;;;;;7.97;6.50;;;29.00;64.30;;;;;;4991169;28;20302;-73
2022/08/05 10:58:52;;;;;;;3.50;2.38;;;29.00;64.20;;;;;;4987639;28;20023;-74
2022/08/05 11:01:45;;;;;;;6.45;4.07;;;29.10;64.20;;;;;;4995373;28;20033;-74
2022/08/05 11:04:13;;;;;;;5.15;2.85;;;29.10;63.60;;;;;;4987665;28;20171;-73
2022/08/05 11:06:59;;;;;;;4.93;2.50;;;29.20;63.60;;;;;;4983617;28;20026;-73
2022/08/05 11:09:26;;;;;;;29.08;20.02;;;29.20;63.70;;;;;;4994544;28;20025;-73
2022/08/05 11:11:55;;;;;;;12.45;7.57;;;29.20;64.20;;;;;;4990073;28;20119;-75
2022/08/05 11:14:23;;;;;;;4.40;2.90;;;29.20;63.70;;;;;;4987520;28;20048;-73
2022/08/05 11:17:26;;;;;;;5.65;2.67;;;29.20;63.70;;;;;;4990382;28;20113;-73
2022/08/05 11:19:54;;;;;;;4.07;2.33;;;29.20;63.60;;;;;;4987297;28;20581;-74
2022/08/05 11:22:38;;;;;;;4.38;2.45;;;29.20;63.40;;;;;;4986042;28;20058;-73
2022/08/05 11:25:37;;;;;;;4.25;2.60;;;29.10;63.00;;;;;;4988805;28;20062;-74
2022/08/05 11:28:12;;;;;;;5.35;3.70;;;29.10;63.10;;;;;;4988069;28;20088;-75
2022/08/05 11:31:01;;;;;;;5.03;4.20;;;29.20;62.60;;;;;;4992152;28;20034;-74
2022/08/05 11:33:47;;;;;;;4.70;3.90;;;29.20;62.40;;;;;;4986327;28;20109;-74
2022/08/05 11:36:15;;;;;;;8.55;5.82;;;29.20;62.60;;;;;;4991624;28;20031;-75
2022/08/05 11:38:40;;;;;;;7.28;4.93;;;29.20;62.80;;;;;;4987786;28;20028;-73
2022/08/05 11:41:19;;;;;;;4.53;3.15;;;29.30;63.10;;;;;;4989837;28;20391;-73
2022/08/05 11:43:59;;;;;;;6.40;3.10;;;29.30;62.80;;;;;;4989433;28;20034;-75
2022/08/05 11:46:42;;;;;;;3.70;2.67;;;29.30;62.70;;;;;;4987235;28;20054;-74
2022/08/05 11:49:15;;;;;;;7.07;2.43;;;29.30;62.40;;;;;;4991398;28;20037;-75
2022/08/05 11:51:44;;;;;;;4.10;2.55;;;29.30;62.60;;;;;;4989931;28;20280;-75
2022/08/05 11:54:11;;;;;;;5.65;3.33;;;29.30;62.70;;;;;;4990607;28;20038;-74
2022/08/05 11:56:49;;;;;;;2.17;1.98;;;29.30;62.50;;;;;;4987129;28;20399;-74
2022/08/05 11:59:16;;;;;;;5.47;2.20;;;29.30;62.40;;;;;;4994344;28;20018;-75
2022/08/05 12:01:52;;;;;;;3.95;2.30;;;29.30;62.50;;;;;;4988746;28;20027;-74
2022/08/05 12:04:18;;;;;;;6.15;2.05;;;29.30;62.60;;;;;;4990059;28;20053;-74
2022/08/05 12:06:44;;;;;;;4.15;2.35;;;29.30;62.50;;;;;;4989043;28;20038;-74
2022/08/05 12:09:10;;;;;;;2.80;2.03;;;29.40;62.60;;;;;;4995464;28;20038;-75
2022/08/05 12:11:36;;;;;;;3.55;2.30;;;29.50;62.20;;;;;;4989343;28;20026;-74
2022/08/05 12:14:04;;;;;;;3.30;2.20;;;29.40;61.80;;;;;;4992391;28;20045;-73
2022/08/05 12:16:35;;;;;;;4.97;3.17;;;29.50;61.80;;;;;;4988797;28;20037;-74
2022/08/05 12:19:02;;;;;;;4.05;2.97;;;29.50;61.80;;;;;;4987641;28;20109;-76
2022/08/05 12:21:35;;;;;;;3.45;2.88;;;29.60;61.50;;;;;;4984727;28;20038;-74
2022/08/05 12:24:05;;;;;;;2.65;2.28;;;29.70;61.60;;;;;;4987963;28;20733;-75
2022/08/05 12:26:35;;;;;;;3.95;2.15;;;29.70;61.50;;;;;;4985867;28;20034;-75
2022/08/05 12:29:06;;;;;;;3.80;2.00;;;29.70;61.60;;;;;;4991223;28;20057;-75
2022/08/05 12:31:33;;;;;;;4.10;2.20;;;29.70;61.30;;;;;;4986408;28;20458;-75
2022/08/05 12:34:02;;;;;;;3.97;2.55;;;29.80;61.50;;;;;;4988522;28;20028;-74
2022/08/05 12:36:29;;;;;;;10.88;2.97;;;29.80;61.60;;;;;;4986883;28;20113;-75
2022/08/05 12:38:56;;;;;;;3.25;2.08;;;29.90;61.70;;;;;;4989400;28;20034;-75
2022/08/05 12:41:22;;;;;;;5.13;2.25;;;29.90;61.40;;;;;;4988650;28;20029;-74
2022/08/05 12:43:50;;;;;;;3.08;1.92;;;29.90;61.50;;;;;;4990838;28;20271;-75
2022/08/05 12:46:27;;;;;;;3.72;2.25;;;30.00;61.50;;;;;;4990147;28;20114;-74
2022/08/05 12:49:10;;;;;;;4.05;2.35;;;30.10;61.40;;;;;;4990786;28;20030;-73
2022/08/05 12:51:58;;;;;;;3.10;2.05;;;30.10;61.20;;;;;;4987239;28;20023;-74
2022/08/05 12:54:29;;;;;;;2.80;2.30;;;30.20;61.00;;;;;;4985371;28;20029;-74
2022/08/05 12:56:57;;;;;;;3.25;2.70;;;30.20;60.80;;;;;;4993576;28;20042;-74
2022/08/05 12:59:29;;;;;;;2.20;1.90;;;30.20;60.60;;;;;;4987399;28;20152;-74